Time;durP1;ratioP1;P1;durP2;ratioP2;P2;SDS_P1;SDS_P2;PMS_P1;PMS_P2;Temp;Humidity;BMP_temperature;BMP_pressure;BME280_temperature;BME280_humidity;BME280_pressure;Samples;Min_cycle;Max_cycle;Signal;HPM_P1;HPM_P2
2022/07/16 00:02:37;;;;;;;9.55;1.45;;;;;;;22.88;39.82;98957.16;5022088;28;20045;-68
2022/07/16 00:05:03;;;;;;;7.60;1.33;;;;;;;22.84;39.89;98963.00;5027617;28;20037;-68
2022/07/16 00:07:28;;;;;;;5.18;1.20;;;;;;;22.83;40.07;98965.91;5027574;28;20097;-68
2022/07/16 00:09:54;;;;;;;5.45;1.20;;;;;;;22.82;39.91;98957.00;5027897;28;20029;-68
2022/07/16 00:12:19;;;;;;;2.20;1.20;;;;;;;22.76;40.17;98960.53;5013521;28;20038;-68
2022/07/16 00:14:45;;;;;;;3.50;1.33;;;;;;;22.71;40.24;98961.19;5007680;28;20026;-68
2022/07/16 00:17:10;;;;;;;3.90;1.25;;;;;;;22.67;40.41;98956.44;5007808;28;20026;-68
2022/07/16 00:19:36;;;;;;;7.00;1.30;;;;;;;22.76;40.06;98957.03;5006917;28;20235;-68
2022/07/16 00:22:01;;;;;;;4.78;1.60;;;;;;;22.76;40.09;98968.63;5008709;28;20230;-68
2022/07/16 00:24:27;;;;;;;2.78;1.30;;;;;;;22.77;40.36;98959.50;5007755;28;20041;-68
2022/07/16 00:26:52;;;;;;;4.47;1.55;;;;;;;22.81;40.20;98963.44;5007577;28;20038;-68
2022/07/16 00:29:19;;;;;;;3.03;1.30;;;;;;;22.76;40.37;98970.53;5008029;28;20038;-68
2022/07/16 00:31:46;;;;;;;4.35;1.13;;;;;;;22.63;40.63;98964.16;5018738;28;20038;-68
2022/07/16 00:34:12;;;;;;;2.45;1.20;;;;;;;22.58;40.71;98963.09;5027460;28;20050;-69
2022/07/16 00:36:39;;;;;;;2.72;1.15;;;;;;;22.51;40.87;98963.97;5027123;28;20136;-68
2022/07/16 00:39:06;;;;;;;6.78;1.58;;;;;;;22.40;41.34;98968.13;5027507;28;20040;-68
2022/07/16 00:41:32;;;;;;;6.78;1.48;;;;;;;22.33;41.46;98972.72;5015392;28;20050;-68
2022/07/16 00:44:08;;;;;;;7.30;1.85;;;;;;;22.20;41.66;98973.56;5007279;28;20030;-68
2022/07/16 00:46:38;;;;;;;5.57;1.75;;;;;;;22.17;41.64;98981.25;5007410;28;20041;-68
2022/07/16 00:49:05;;;;;;;5.53;1.53;;;;;;;22.13;41.99;98974.63;5007733;28;20093;-68
2022/07/16 00:51:31;;;;;;;4.53;1.50;;;;;;;22.16;41.69;98980.41;5008327;28;20280;-68
2022/07/16 00:53:57;;;;;;;2.25;1.30;;;;;;;22.29;41.64;98971.47;5011103;28;20254;-68
2022/07/16 00:56:24;;;;;;;7.55;1.50;;;;;;;22.29;41.77;98981.41;5026992;28;20034;-68
2022/07/16 00:58:50;;;;;;;2.92;1.35;;;;;;;22.18;41.88;98975.63;5026873;28;20089;-68
2022/07/16 01:01:17;;;;;;;2.47;1.10;;;;;;;22.08;42.21;98972.56;5015029;28;20070;-68
2022/07/16 01:03:43;;;;;;;2.67;1.20;;;;;;;22.05;42.23;98981.91;5007072;28;20057;-68
2022/07/16 01:06:10;;;;;;;5.05;1.77;;;;;;;22.12;42.30;98987.28;5007223;28;20042;-68
2022/07/16 01:08:39;;;;;;;2.55;1.20;;;;;;;22.15;42.04;98989.53;5007321;28;20038;-68
2022/07/16 01:11:07;;;;;;;2.55;1.40;;;;;;;22.24;42.03;98990.97;5008091;28;20036;-67
2022/07/16 01:13:35;;;;;;;3.60;1.23;;;;;;;22.32;41.73;98986.38;5006919;28;20034;-68
2022/07/16 01:16:00;;;;;;;5.50;1.50;;;;;;;22.34;41.80;98990.53;5024944;28;20022;-68
2022/07/16 01:18:26;;;;;;;5.00;1.50;;;;;;;22.33;41.83;98991.59;5026680;28;20052;-68
2022/07/16 01:20:51;;;;;;;5.70;2.13;;;;;;;22.27;41.99;98986.22;5025583;28;20065;-68
2022/07/16 01:23:24;;;;;;;5.43;1.70;;;;;;;22.20;41.99;98991.63;5026454;28;20108;-68
2022/07/16 01:25:50;;;;;;;3.85;1.30;;;;;;;22.12;42.11;98987.28;5026676;28;20046;-68
2022/07/16 01:28:16;;;;;;;6.35;1.40;;;;;;;22.15;42.11;98992.22;5011731;28;20293;-68
2022/07/16 01:30:43;;;;;;;5.55;1.55;;;;;;;22.14;42.20;98989.75;5009123;28;20045;-68
2022/07/16 01:33:21;;;;;;;5.60;1.48;;;;;;;22.16;42.04;98993.06;5010951;28;20214;-68
2022/07/16 01:35:47;;;;;;;7.70;1.58;;;;;;;22.15;42.08;98991.41;5010914;28;20026;-68
2022/07/16 01:38:12;;;;;;;5.00;1.27;;;;;;;22.12;42.15;98989.97;5025790;28;20036;-68
2022/07/16 01:40:38;;;;;;;3.95;1.52;;;;;;;22.10;42.26;98990.16;5030731;28;20037;-68
2022/07/16 01:43:03;;;;;;;3.22;1.40;;;;;;;22.12;42.51;98998.06;5030132;28;20030;-68
2022/07/16 01:45:29;;;;;;;2.72;1.40;;;;;;;22.14;42.24;98995.94;5030304;28;20046;-68
2022/07/16 01:47:54;;;;;;;7.78;1.55;;;;;;;22.13;42.18;98999.69;5028386;28;20037;-68
2022/07/16 01:50:20;;;;;;;8.10;2.70;;;;;;;22.07;42.20;98998.66;5030564;28;20022;-68
2022/07/16 01:52:45;;;;;;;4.97;1.60;;;;;;;22.05;42.23;99008.00;5030479;28;20044;-68
2022/07/16 01:55:11;;;;;;;2.63;1.40;;;;;;;22.03;42.42;99002.84;5030448;28;20127;-68
2022/07/16 01:57:36;;;;;;;4.40;1.50;;;;;;;21.97;42.36;99005.53;5028291;28;20093;-68
2022/07/16 02:00:03;;;;;;;9.38;1.40;;;;;;;21.96;42.54;99007.38;5030058;28;20049;-68
2022/07/16 02:02:29;;;;;;;4.38;1.73;;;;;;;21.94;42.39;99006.75;5029923;28;20026;-68
2022/07/16 02:04:54;;;;;;;4.47;1.70;;;;;;;21.98;42.32;99017.97;5029870;28;20036;-68
2022/07/16 02:07:20;;;;;;;4.57;1.40;;;;;;;21.95;42.26;99005.72;5028114;28;20034;-68
2022/07/16 02:09:45;;;;;;;7.68;1.55;;;;;;;21.90;42.43;99013.63;5029926;28;20072;-68
2022/07/16 02:12:11;;;;;;;6.72;1.42;;;;;;;21.97;42.49;99014.44;5030010;28;20029;-68
2022/07/16 02:14:36;;;;;;;3.30;1.70;;;;;;;22.01;42.22;99002.22;5023139;28;20026;-68
2022/07/16 02:17:02;;;;;;;5.47;1.35;;;;;;;21.98;42.27;99009.88;5016573;28;20104;-68
2022/07/16 02:19:28;;;;;;;8.98;1.40;;;;;;;21.99;42.23;99008.81;5029781;28;20045;-68
2022/07/16 02:21:53;;;;;;;2.35;1.15;;;;;;;21.94;42.50;99020.22;5029442;28;20242;-68
2022/07/16 02:24:19;;;;;;;4.43;1.25;;;;;;;21.99;42.25;99019.59;5029668;28;20038;-68
2022/07/16 02:26:44;;;;;;;5.35;1.08;;;;;;;21.95;42.38;99019.19;5023414;28;20014;-68
2022/07/16 02:29:10;;;;;;;5.15;1.35;;;;;;;21.98;42.35;99018.78;5009895;28;20120;-68
2022/07/16 02:31:36;;;;;;;3.45;1.40;;;;;;;21.99;42.36;99019.59;5009784;28;20072;-68
2022/07/16 02:34:01;;;;;;;4.43;1.50;;;;;;;21.95;42.44;99020.03;5009708;28;20236;-68
2022/07/16 02:36:26;;;;;;;7.88;1.58;;;;;;;22.01;42.31;99021.06;5010014;28;20038;-68
2022/07/16 02:38:52;;;;;;;2.92;1.25;;;;;;;22.08;42.18;99013.78;5029525;28;20093;-68
2022/07/16 02:41:17;;;;;;;5.80;1.83;;;;;;;22.17;42.10;99021.66;5028756;28;20041;-68
2022/07/16 02:43:43;;;;;;;3.30;1.30;;;;;;;22.19;42.02;99017.72;5029112;28;20291;-68
2022/07/16 02:46:09;;;;;;;5.55;1.45;;;;;;;22.25;41.92;99018.75;5029525;28;20032;-68
2022/07/16 02:48:34;;;;;;;4.50;1.45;;;;;;;22.31;41.77;99017.91;5029133;28;20266;-68
2022/07/16 02:51:00;;;;;;;3.42;1.33;;;;;;;22.34;41.75;99016.66;5028993;28;20104;-68
2022/07/16 02:53:25;;;;;;;3.38;0.93;;;;;;;22.37;41.67;99017.06;5028803;28;20053;-68
2022/07/16 02:55:50;;;;;;;5.55;1.27;;;;;;;22.43;41.58;99022.69;5009553;28;20110;-68
2022/07/16 02:58:16;;;;;;;3.70;1.23;;;;;;;22.40;41.77;99030.13;5009521;28;20030;-68
2022/07/16 03:00:41;;;;;;;4.82;1.25;;;;;;;22.40;41.57;99024.72;5009385;28;20137;-68
2022/07/16 03:03:07;;;;;;;2.92;1.05;;;;;;;22.40;41.68;99027.41;5010433;28;20022;-68
2022/07/16 03:05:32;;;;;;;5.45;1.30;;;;;;;22.42;41.51;99027.25;5009283;28;20038;-68
2022/07/16 03:07:58;;;;;;;5.45;0.95;;;;;;;22.43;41.39;99026.19;5009167;28;20105;-68
2022/07/16 03:10:23;;;;;;;4.47;1.35;;;;;;;22.49;41.29;99027.25;5009140;28;20248;-68
2022/07/16 03:12:49;;;;;;;4.18;1.48;;;;;;;22.52;41.33;99035.72;5009290;28;20037;-68
2022/07/16 03:15:14;;;;;;;8.43;1.60;;;;;;;22.59;41.28;99037.56;5003401;28;20186;-68
2022/07/16 03:17:40;;;;;;;3.83;1.33;;;;;;;22.63;41.29;99030.72;5011860;28;20027;-67
2022/07/16 03:20:07;;;;;;;3.47;1.33;;;;;;;22.75;40.95;99033.59;5008954;28;20045;-67
2022/07/16 03:22:32;;;;;;;5.47;1.20;;;;;;;23.00;40.53;99036.41;5008600;28;20045;-68
2022/07/16 03:24:58;;;;;;;5.05;1.30;;;;;;;23.24;40.21;99040.22;5008917;28;20046;-68
2022/07/16 03:27:23;;;;;;;5.00;1.63;;;;;;;23.52;39.88;99049.84;5008677;28;20171;-68
2022/07/16 03:29:49;;;;;;;6.75;1.67;;;;;;;23.67;39.31;99048.72;5024777;28;20049;-69
2022/07/16 03:32:14;;;;;;;2.47;0.85;;;;;;;23.76;39.09;99055.47;5028319;28;20034;-69
2022/07/16 03:34:40;;;;;;;6.57;1.42;;;;;;;23.75;39.00;99048.44;5028447;28;20207;-69
2022/07/16 03:37:05;;;;;;;5.63;1.20;;;;;;;23.81;38.96;99054.81;5028253;28;20034;-68
2022/07/16 03:39:31;;;;;;;4.85;1.30;;;;;;;23.91;38.72;99064.09;5012736;28;20110;-69
2022/07/16 03:41:56;;;;;;;5.82;1.15;;;;;;;24.01;38.88;99068.19;5008350;28;20029;-68
2022/07/16 03:44:22;;;;;;;4.72;1.20;;;;;;;24.16;38.63;99071.41;5008494;28;20042;-68
2022/07/16 03:46:47;;;;;;;5.57;1.17;;;;;;;24.18;38.45;99066.59;5008320;28;20052;-68
2022/07/16 03:49:13;;;;;;;2.28;0.88;;;;;;;24.12;38.35;99072.06;5009364;28;20062;-68
2022/07/16 03:51:38;;;;;;;2.72;1.10;;;;;;;24.05;38.87;99072.13;5008156;28;20038;-68
2022/07/16 03:54:05;;;;;;;4.32;1.35;;;;;;;24.01;38.55;99062.78;5007062;28;20146;-68
2022/07/16 03:56:31;;;;;;;3.25;1.10;;;;;;;23.92;38.49;99064.91;5007965;28;20027;-68
2022/07/16 03:58:57;;;;;;;3.90;1.05;;;;;;;23.82;38.89;99064.59;5020911;28;20057;-68
2022/07/16 04:01:23;;;;;;;1.58;0.80;;;;;;;23.84;38.98;99067.91;5027624;28;20029;-68
2022/07/16 04:03:49;;;;;;;3.17;1.40;;;;;;;23.77;39.25;99068.75;5027841;28;20056;-68
2022/07/16 04:06:15;;;;;;;2.50;0.90;;;;;;;23.76;39.14;99071.69;5027757;28;20227;-68
2022/07/16 04:08:40;;;;;;;2.83;1.00;;;;;;;23.69;39.46;99069.03;5027598;28;20044;-68
2022/07/16 04:11:06;;;;;;;5.80;1.25;;;;;;;23.67;39.28;99067.59;5027707;28;20041;-67
2022/07/16 04:13:32;;;;;;;4.00;1.33;;;;;;;23.70;39.55;99072.56;5027495;28;20089;-68
2022/07/16 04:15:57;;;;;;;4.40;0.85;;;;;;;23.65;39.83;99077.81;5010092;28;20194;-68
2022/07/16 04:18:23;;;;;;;4.50;1.45;;;;;;;23.60;39.26;99078.47;5008071;28;20034;-68
2022/07/16 04:20:48;;;;;;;2.42;1.00;;;;;;;23.62;39.49;99081.75;5027409;28;20034;-68
2022/07/16 04:23:14;;;;;;;3.15;1.13;;;;;;;23.62;39.58;99077.19;5027162;28;20046;-68
2022/07/16 04:25:39;;;;;;;1.77;0.90;;;;;;;23.61;39.85;99080.09;5027477;28;20038;-69
2022/07/16 04:28:05;;;;;;;4.32;0.90;;;;;;;23.54;40.08;99074.72;5027339;28;20139;-69
2022/07/16 04:30:31;;;;;;;3.05;1.10;;;;;;;23.45;40.31;99076.03;5027375;28;20053;-69
2022/07/16 04:32:56;;;;;;;2.67;0.93;;;;;;;23.49;40.41;99071.88;5026865;28;20046;-68
2022/07/16 04:35:22;;;;;;;2.70;0.88;;;;;;;23.58;40.38;99073.25;5008588;28;20030;-69
2022/07/16 04:37:47;;;;;;;4.38;1.05;;;;;;;23.76;39.80;99080.59;5007661;28;20034;-69
2022/07/16 04:40:13;;;;;;;6.47;0.90;;;;;;;23.86;39.70;99084.72;5007405;28;20096;-69
2022/07/16 04:42:40;;;;;;;2.65;0.88;;;;;;;24.08;39.67;99075.19;5007230;28;20031;-69
2022/07/16 04:45:07;;;;;;;10.77;1.67;;;;;;;24.39;39.11;99069.94;5007320;28;20097;-68
2022/07/16 04:47:33;;;;;;;3.50;1.15;;;;;;;24.81;38.52;99078.28;5025605;28;20041;-69
2022/07/16 04:49:58;;;;;;;3.30;1.00;;;;;;;25.25;37.82;99086.25;5027056;28;20088;-69
2022/07/16 04:52:24;;;;;;;3.67;1.25;;;;;;;25.57;37.34;99082.53;5026904;28;20097;-69
2022/07/16 04:54:49;;;;;;;2.13;1.05;;;;;;;25.80;36.78;99089.06;5027000;28;20034;-69
2022/07/16 04:57:15;;;;;;;3.40;1.20;;;;;;;25.90;36.81;99086.63;5025109;28;20026;-69
2022/07/16 04:59:41;;;;;;;2.88;1.10;;;;;;;25.96;36.62;99096.53;5027157;28;20045;-69
2022/07/16 05:04:50;;;;;;;5.40;1.00;;;;;;;26.24;36.10;99092.34;5026454;28;20095;-69
2022/07/16 05:07:16;;;;;;;2.45;0.93;;;;;;;26.40;36.00;99095.44;5011530;28;20218;-69
2022/07/16 05:09:41;;;;;;;1.92;0.98;;;;;;;26.50;35.63;99096.50;5007117;28;20167;-69
2022/07/16 05:12:07;;;;;;;2.75;1.00;;;;;;;26.65;35.33;99101.41;5007003;28;20037;-69
2022/07/16 05:14:32;;;;;;;6.05;1.30;;;;;;;26.78;35.10;99100.34;5007035;28;20188;-69
2022/07/16 05:16:57;;;;;;;2.80;0.73;;;;;;;26.90;35.13;99102.25;5007983;28;20035;-69
2022/07/16 05:19:24;;;;;;;4.88;1.17;;;;;;;26.99;34.63;99100.78;5007045;28;20030;-69
2022/07/16 05:21:49;;;;;;;2.35;1.00;;;;;;;26.96;34.82;99095.88;5006855;28;20048;-69
2022/07/16 05:24:15;;;;;;;2.58;0.80;;;;;;;26.92;34.57;99094.69;5007097;28;20030;-69
2022/07/16 05:26:41;;;;;;;1.35;0.60;;;;;;;26.83;35.03;99101.56;5007938;28;20137;-69
2022/07/16 05:29:06;;;;;;;5.60;1.13;;;;;;;26.88;34.81;99099.78;5007016;28;20034;-69
2022/07/16 05:31:32;;;;;;;3.65;0.90;;;;;;;26.83;34.57;99101.56;5007702;28;20227;-69
2022/07/16 05:33:57;;;;;;;5.32;0.95;;;;;;;26.79;34.72;99104.75;5006921;28;20129;-69
2022/07/16 05:36:23;;;;;;;3.00;0.60;;;;;;;26.94;34.53;99103.44;5006944;28;20038;-69
2022/07/16 05:38:48;;;;;;;4.00;0.90;;;;;;;27.06;34.54;99106.09;5006889;28;20286;-69
2022/07/16 05:41:14;;;;;;;3.22;1.15;;;;;;;27.13;34.32;99106.00;5007850;28;20030;-69
2022/07/16 05:43:39;;;;;;;3.25;0.70;;;;;;;27.18;34.27;99108.78;5006609;28;20054;-69
2022/07/16 05:46:05;;;;;;;1.33;0.70;;;;;;;27.19;34.11;99105.84;5006861;28;20034;-69
2022/07/16 05:48:30;;;;;;;2.97;1.00;;;;;;;27.10;34.32;99108.13;5006711;28;20027;-69
2022/07/16 05:50:56;;;;;;;3.53;0.70;;;;;;;26.99;34.45;99113.56;5006830;28;20042;-69
2022/07/16 05:53:21;;;;;;;4.40;0.98;;;;;;;27.03;34.06;99118.28;5025282;28;20037;-69
2022/07/16 05:55:47;;;;;;;1.02;0.60;;;;;;;27.08;34.14;99115.66;5026378;28;20049;-69
2022/07/16 05:58:12;;;;;;;3.15;1.13;;;;;;;27.06;34.11;99112.38;5026265;28;20057;-69
2022/07/16 06:00:38;;;;;;;3.70;0.60;;;;;;;27.08;33.86;99115.66;5026234;28;20030;-69
2022/07/16 06:03:03;;;;;;;7.45;0.95;;;;;;;27.05;34.12;99109.91;5024250;28;20158;-69
2022/07/16 06:05:29;;;;;;;2.05;0.70;;;;;;;26.98;34.27;99123.63;5026125;28;20178;-69
2022/07/16 06:07:54;;;;;;;2.45;0.98;;;;;;;26.99;34.42;99119.00;5026437;28;20018;-69
2022/07/16 06:10:20;;;;;;;1.83;0.70;;;;;;;26.98;34.30;99111.91;5026547;28;20131;-69
2022/07/16 06:12:45;;;;;;;5.97;0.95;;;;;;;26.95;34.01;99118.66;5024391;28;20053;-70
2022/07/16 06:15:11;;;;;;;1.63;0.60;;;;;;;26.89;34.33;99125.03;5014977;28;20030;-69
2022/07/16 06:17:37;;;;;;;2.58;0.68;;;;;;;26.84;34.22;99117.59;5008308;28;20053;-69
2022/07/16 06:20:04;;;;;;;4.25;1.00;;;;;;;26.80;34.28;99119.97;5010114;28;20042;-69
2022/07/16 06:22:30;;;;;;;2.25;0.75;;;;;;;26.69;34.41;99118.03;5011056;28;20232;-69
2022/07/16 06:24:55;;;;;;;9.18;1.10;;;;;;;26.53;34.74;99116.88;5010007;28;20088;-69
2022/07/16 06:27:21;;;;;;;3.10;0.80;;;;;;;26.35;34.91;99118.66;5010082;28;20045;-69
2022/07/16 06:29:46;;;;;;;2.15;0.80;;;;;;;26.07;35.25;99118.47;5010159;28;20042;-70
2022/07/16 06:32:12;;;;;;;3.17;0.70;;;;;;;25.86;35.62;99116.06;5010854;28;20263;-69
2022/07/16 06:34:38;;;;;;;3.78;0.75;;;;;;;25.74;35.92;99113.31;5009774;28;20104;-69
2022/07/16 06:37:04;;;;;;;1.23;0.60;;;;;;;25.56;36.30;99110.69;5009973;28;20033;-69
2022/07/16 06:39:29;;;;;;;4.20;0.95;;;;;;;25.39;36.60;99115.88;5009934;28;20187;-69
2022/07/16 06:41:55;;;;;;;2.40;1.23;;;;;;;25.30;36.77;99109.94;5010524;28;20027;-69
2022/07/16 06:44:20;;;;;;;5.55;1.45;;;;;;;25.27;36.70;99115.84;5009612;28;20022;-69
2022/07/16 06:46:46;;;;;;;2.90;1.02;;;;;;;25.26;36.64;99112.28;5009583;28;20046;-69
2022/07/16 06:49:11;;;;;;;4.68;0.80;;;;;;;25.23;36.97;99114.63;5009606;28;20061;-69
2022/07/16 06:51:37;;;;;;;2.90;1.08;;;;;;;25.21;36.67;99116.72;5022255;28;20239;-69
2022/07/16 06:54:02;;;;;;;3.88;0.90;;;;;;;25.19;36.20;99106.16;5024191;28;20034;-69
2022/07/16 06:56:27;;;;;;;0.88;0.50;;;;;;;25.17;36.46;99116.38;5009408;28;20064;-69
2022/07/16 06:58:53;;;;;;;3.08;0.77;;;;;;;25.15;36.63;99115.75;5009353;28;20183;-69
2022/07/16 07:01:18;;;;;;;2.47;0.80;;;;;;;25.17;36.64;99119.06;5010291;28;20287;-69
2022/07/16 07:03:44;;;;;;;1.33;0.73;;;;;;;25.16;36.43;99114.72;5008940;28;20038;-69
2022/07/16 07:06:09;;;;;;;4.97;1.05;;;;;;;25.17;36.70;99113.66;5009272;28;20030;-69
2022/07/16 07:08:35;;;;;;;1.95;0.70;;;;;;;25.16;36.47;99108.44;5009147;28;20100;-70
2022/07/16 07:11:01;;;;;;;1.77;0.75;;;;;;;25.15;36.93;99123.88;5019786;28;20044;-69
2022/07/16 07:13:29;;;;;;;1.88;0.60;;;;;;;25.12;36.47;99113.50;5028601;28;20025;-69
2022/07/16 07:15:54;;;;;;;2.55;0.90;;;;;;;25.13;36.56;99112.44;5028443;28;20034;-69
2022/07/16 07:18:20;;;;;;;2.08;0.75;;;;;;;25.11;36.74;99125.38;5028456;28;20045;-69
2022/07/16 07:20:45;;;;;;;2.78;0.63;;;;;;;25.09;36.85;99122.91;5017974;28;20106;-69
2022/07/16 07:23:11;;;;;;;3.78;1.20;;;;;;;25.09;36.40;99122.91;5008722;28;20077;-69
2022/07/16 07:25:37;;;;;;;1.45;0.80;;;;;;;25.08;36.81;99123.13;5008834;28;20088;-69
2022/07/16 07:28:02;;;;;;;0.95;0.32;;;;;;;25.07;36.67;99126.91;5008523;28;20050;-69
2022/07/16 07:30:28;;;;;;;0.75;0.40;;;;;;;25.04;36.69;99128.16;5009982;28;20026;-69
2022/07/16 07:32:54;;;;;;;2.42;0.80;;;;;;;25.03;36.33;99134.63;5008681;28;20034;-69
2022/07/16 07:35:20;;;;;;;3.22;0.85;;;;;;;24.98;36.46;99126.38;5008821;28;20022;-69
2022/07/16 07:37:45;;;;;;;1.50;0.60;;;;;;;24.98;36.52;99121.78;5008559;28;20120;-69
2022/07/16 07:40:11;;;;;;;3.30;0.98;;;;;;;24.96;36.47;99123.88;5016575;28;20025;-69
2022/07/16 07:42:36;;;;;;;6.65;1.23;;;;;;;24.99;36.70;99126.16;5021733;28;20171;-69
2022/07/16 07:45:04;;;;;;;2.53;0.80;;;;;;;24.97;36.57;99114.72;5008565;28;20026;-69
2022/07/16 07:47:29;;;;;;;3.28;1.13;;;;;;;25.03;36.56;99125.69;5008352;28;20026;-69
2022/07/16 07:49:55;;;;;;;3.40;0.80;;;;;;;25.03;36.51;99129.22;5015454;28;20017;-69
2022/07/16 07:52:20;;;;;;;3.17;0.70;;;;;;;25.02;36.33;99126.75;5027790;28;20045;-69
2022/07/16 07:54:46;;;;;;;2.28;0.90;;;;;;;24.97;36.60;99120.13;5027839;28;20041;-69
2022/07/16 07:57:11;;;;;;;2.67;1.08;;;;;;;24.96;36.22;99132.00;5027865;28;20173;-69
2022/07/16 07:59:37;;;;;;;5.38;0.98;;;;;;;24.98;36.52;99127.19;5021088;28;20186;-69
2022/07/16 08:02:02;;;;;;;1.80;0.60;;;;;;;24.99;36.53;99123.44;5008160;28;20037;-69
2022/07/16 08:04:28;;;;;;;0.75;0.40;;;;;;;25.01;36.15;99130.50;5008115;28;20052;-69
2022/07/16 08:06:53;;;;;;;3.38;1.48;;;;;;;25.02;36.25;99127.56;5007917;28;20046;-69
2022/07/16 08:09:18;;;;;;;2.05;0.73;;;;;;;24.98;36.36;99126.38;5012981;28;20041;-69
2022/07/16 08:11:44;;;;;;;0.93;0.60;;;;;;;24.91;36.16;99128.31;5027581;28;20057;-69
2022/07/16 08:14:09;;;;;;;3.72;0.80;;;;;;;24.92;35.99;99132.69;5024285;28;20033;-70
2022/07/16 08:16:35;;;;;;;0.68;0.47;;;;;;;24.95;36.43;99132.25;5008147;28;20029;-69
2022/07/16 08:19:01;;;;;;;2.65;0.68;;;;;;;24.94;35.86;99125.16;5011831;28;20029;-69
2022/07/16 08:21:27;;;;;;;1.77;0.70;;;;;;;24.92;36.26;99129.97;5027531;28;20153;-70
2022/07/16 08:26:36;;;;;;;1.20;0.70;;;;;;;24.89;36.45;99136.69;5027180;28;20040;-69
2022/07/16 08:29:02;;;;;;;2.58;0.68;;;;;;;24.89;36.30;99142.09;5021012;28;20194;-69
2022/07/16 08:31:28;;;;;;;2.42;0.90;;;;;;;24.91;36.19;99147.25;5007952;28;20091;-69
2022/07/16 08:33:53;;;;;;;1.95;0.90;;;;;;;24.91;36.57;99148.09;5007537;28;20045;-69
2022/07/16 08:36:19;;;;;;;4.07;1.13;;;;;;;24.91;36.16;99145.41;5007528;28;20247;-69
2022/07/16 08:38:44;;;;;;;3.40;1.23;;;;;;;24.90;36.64;99140.19;5011904;28;20060;-69
2022/07/16 08:41:10;;;;;;;1.35;0.75;;;;;;;24.89;36.38;99136.69;5026619;28;20034;-69
2022/07/16 08:43:37;;;;;;;4.97;0.93;;;;;;;24.91;36.30;99134.56;5027068;28;20045;-69
2022/07/16 08:46:03;;;;;;;3.28;1.05;;;;;;;24.93;36.05;99128.94;5027140;28;20033;-69
2022/07/16 08:48:30;;;;;;;5.00;1.30;;;;;;;24.93;36.03;99140.56;5022685;28;20094;-69
2022/07/16 08:50:58;;;;;;;4.28;0.88;;;;;;;24.94;35.90;99136.00;5007402;28;20107;-69
2022/07/16 08:53:24;;;;;;;1.77;0.63;;;;;;;24.93;35.73;99134.34;5016541;28;20033;-69
2022/07/16 08:55:54;;;;;;;1.45;0.80;;;;;;;24.91;35.98;99144.56;5026756;28;20036;-69
2022/07/16 08:58:20;;;;;;;3.20;1.17;;;;;;;24.88;35.72;99143.13;5022354;28;20085;-69
2022/07/16 09:00:46;;;;;;;3.47;1.13;;;;;;;24.90;35.96;99141.03;5007185;28;20034;-69
2022/07/16 09:03:13;;;;;;;1.40;0.85;;;;;;;24.82;35.57;99139.47;5007001;28;20018;-68
2022/07/16 09:05:39;;;;;;;4.65;1.25;;;;;;;24.79;35.46;99139.06;5007439;28;20041;-69
2022/07/16 09:08:05;;;;;;;2.65;1.00;;;;;;;24.75;35.81;99133.28;5010213;28;20022;-69
2022/07/16 09:10:35;;;;;;;2.97;1.10;;;;;;;24.77;35.69;99135.78;5026836;28;20049;-69
2022/07/16 09:13:02;;;;;;;1.10;0.65;;;;;;;24.78;35.94;99137.41;5026619;28;20243;-69
2022/07/16 09:15:36;;;;;;;1.45;0.70;;;;;;;24.80;35.79;99138.84;5026546;28;20089;-69
2022/07/16 09:18:16;;;;;;;3.67;0.95;;;;;;;24.82;35.53;99147.56;5024843;28;20049;-69
2022/07/16 09:20:46;;;;;;;3.83;0.95;;;;;;;24.79;35.85;99134.50;5027010;28;20032;-69
2022/07/16 09:23:21;;;;;;;4.20;0.70;;;;;;;24.79;35.67;99139.91;5026592;28;20046;-69
2022/07/16 09:25:56;;;;;;;2.55;0.70;;;;;;;24.81;35.42;99132.38;5026697;28;20112;-69
2022/07/16 09:28:23;;;;;;;2.00;0.80;;;;;;;24.83;35.92;99145.69;5024844;28;20037;-69
2022/07/16 09:30:49;;;;;;;0.93;0.55;;;;;;;24.82;35.60;99144.88;5026610;28;20056;-69
2022/07/16 09:33:17;;;;;;;2.03;1.10;;;;;;;24.81;35.74;99139.66;5026471;28;20030;-69
2022/07/16 09:35:44;;;;;;;1.92;0.80;;;;;;;24.81;35.65;99148.63;5026509;28;20105;-69
2022/07/16 09:38:10;;;;;;;2.88;0.80;;;;;;;24.83;35.41;99142.97;5017836;28;20037;-69
2022/07/16 09:40:40;;;;;;;1.60;0.68;;;;;;;24.83;35.27;99138.41;5006795;28;20042;-69
2022/07/16 09:43:15;;;;;;;2.30;0.77;;;;;;;24.85;35.77;99135.47;5006703;28;20035;-69
2022/07/16 09:45:49;;;;;;;2.80;0.70;;;;;;;24.86;35.76;99138.97;5006878;28;20073;-69
2022/07/16 09:48:21;;;;;;;2.33;0.85;;;;;;;24.87;35.71;99141.47;5016572;28;20046;-68
2022/07/16 09:50:47;;;;;;;1.00;0.60;;;;;;;24.89;35.53;99130.41;5027117;28;20022;-69
2022/07/16 09:53:18;;;;;;;1.67;0.70;;;;;;;24.91;35.50;99134.56;5030022;28;20026;-69
2022/07/16 09:56:08;;;;;;;2.35;0.82;;;;;;;24.91;35.13;99145.41;5012960;28;20142;-69
2022/07/16 09:58:35;;;;;;;1.48;0.50;;;;;;;24.90;35.25;99141.03;5028269;28;20034;-69
2022/07/16 10:01:02;;;;;;;0.57;0.50;;;;;;;24.91;35.12;99134.56;5030126;28;20033;-69
2022/07/16 10:03:28;;;;;;;1.60;0.73;;;;;;;24.91;35.54;99147.25;5030030;28;20037;-70
2022/07/16 10:05:54;;;;;;;1.60;0.68;;;;;;;24.92;35.27;99136.22;5030006;28;20022;-70
2022/07/16 10:08:20;;;;;;;2.65;0.63;;;;;;;24.95;35.65;99138.47;5020083;28;20030;-69
2022/07/16 10:10:47;;;;;;;0.85;0.40;;;;;;;24.95;35.33;99133.06;5010583;28;20225;-69
2022/07/16 10:13:14;;;;;;;1.25;0.52;;;;;;;24.96;35.54;99133.91;5010117;28;20038;-69
2022/07/16 10:15:40;;;;;;;1.35;0.68;;;;;;;24.96;35.41;99136.59;5009926;28;20064;-70
2022/07/16 10:18:36;;;;;;;0.90;0.52;;;;;;;24.95;35.29;99146.59;5018704;28;20036;-69
2022/07/16 10:21:06;;;;;;;2.50;0.70;;;;;;;24.95;35.46;99137.66;5029759;28;20135;-69
2022/07/16 10:23:32;;;;;;;3.83;0.63;;;;;;;24.97;35.47;99138.25;5029149;28;20255;-70
2022/07/16 10:26:08;;;;;;;3.53;0.50;;;;;;;24.97;34.99;99141.78;5029339;28;20068;-70
2022/07/16 10:28:50;;;;;;;2.15;0.70;;;;;;;24.95;34.81;99146.59;5014933;28;20216;-70
2022/07/16 10:31:37;;;;;;;2.58;0.73;;;;;;;24.95;34.87;99141.16;5009934;28;20032;-70
2022/07/16 10:34:14;;;;;;;2.58;0.90;;;;;;;24.96;34.97;99153.66;5009957;28;20027;-67
2022/07/16 10:36:55;;;;;;;1.35;0.63;;;;;;;24.97;35.12;99158.03;5009515;28;20022;-67
2022/07/16 10:39:23;;;;;;;1.67;1.02;;;;;;;24.96;35.05;99156.38;4992702;28;20030;-67
2022/07/16 10:42:00;;;;;;;0.73;0.30;;;;;;;24.99;34.99;99155.91;5009473;28;20069;-67
2022/07/16 10:44:41;;;;;;;0.85;0.50;;;;;;;25.01;35.01;99147.56;5009983;28;20023;-70
2022/07/16 10:47:07;;;;;;;3.22;1.20;;;;;;;25.02;35.26;99148.41;5010561;28;20100;-68
2022/07/16 10:49:32;;;;;;;4.18;0.75;;;;;;;24.98;35.16;99145.31;5009602;28;20038;-67
2022/07/16 10:52:08;;;;;;;1.42;0.65;;;;;;;25.01;34.94;99150.25;5009475;28;20161;-68
2022/07/16 10:54:37;;;;;;;1.20;0.60;;;;;;;24.96;35.02;99155.53;5018592;28;20172;-70
2022/07/16 10:57:08;;;;;;;2.08;0.60;;;;;;;24.95;34.93;99149.28;5023876;28;20030;-67
2022/07/16 10:59:39;;;;;;;4.25;0.77;;;;;;;24.94;35.03;99161.16;5017713;28;20049;-67
2022/07/16 11:02:07;;;;;;;1.75;0.65;;;;;;;24.95;35.10;99156.59;5028977;28;20041;-67
2022/07/16 11:04:35;;;;;;;2.08;0.68;;;;;;;24.96;35.06;99161.78;5016484;28;20030;-68
2022/07/16 11:07:13;;;;;;;2.60;0.80;;;;;;;24.96;34.97;99152.84;5009150;28;20120;-67
2022/07/16 11:09:42;;;;;;;1.40;0.60;;;;;;;24.96;35.25;99159.06;5010488;28;20033;-70
2022/07/16 11:12:19;;;;;;;3.42;1.40;;;;;;;24.96;34.99;99172.59;5009364;28;20042;-68
2022/07/16 11:14:47;;;;;;;5.57;0.93;;;;;;;24.94;35.03;99163.88;5009104;28;20042;-70
2022/07/16 11:17:14;;;;;;;1.33;0.80;;;;;;;24.94;34.60;99163.88;5008943;28;20228;-67
2022/07/16 11:19:43;;;;;;;1.58;0.82;;;;;;;24.96;34.67;99156.38;5010038;28;20248;-68
2022/07/16 11:22:09;;;;;;;3.97;0.60;;;;;;;24.97;34.35;99152.59;5008972;28;20113;-68
2022/07/16 11:24:35;;;;;;;1.23;0.68;;;;;;;25.01;34.52;99160.28;5008909;28;20282;-66
2022/07/16 11:27:02;;;;;;;2.30;1.05;;;;;;;25.02;34.76;99172.75;5008761;28;20125;-67
2022/07/16 11:29:29;;;;;;;4.55;0.70;;;;;;;25.03;34.55;99166.31;5009764;28;20045;-67
2022/07/16 11:31:55;;;;;;;1.60;0.73;;;;;;;25.04;34.46;99165.25;5008697;28;20026;-67
2022/07/16 11:34:22;;;;;;;2.28;0.75;;;;;;;25.05;34.86;99170.44;5008882;28;20030;-68
2022/07/16 11:36:54;;;;;;;3.83;1.13;;;;;;;25.06;34.56;99171.28;5008585;28;20046;-68
2022/07/16 11:39:22;;;;;;;4.18;1.23;;;;;;;25.07;34.56;99170.22;5019799;28;20262;-67